createdAt,value
2023-03-28T00:02:16.946Z,0.47
2023-03-28T00:04:44.238Z,0.44
2023-03-28T00:07:11.512Z,0.41
2023-03-28T00:09:38.414Z,0.39
2023-03-28T00:12:05.688Z,0.37
2023-03-28T00:14:35.302Z,0.34
2023-03-28T00:17:02.410Z,0.32
2023-03-28T00:19:32.563Z,0.29
2023-03-28T00:22:00.407Z,0.27
2023-03-28T00:24:28.277Z,0.25
2023-03-28T00:27:00.530Z,0.23
2023-03-28T00:29:29.616Z,0.21
2023-03-28T00:31:56.915Z,0.19
2023-03-28T00:34:23.877Z,0.18
2023-03-28T00:36:53.575Z,0.18
2023-03-28T00:39:20.826Z,0.16
2023-03-28T00:41:49.594Z,0.14
2023-03-28T00:44:38.662Z,0.12
2023-03-28T00:47:32.879Z,0.10
2023-03-28T00:50:02.793Z,0.10
2023-03-28T00:52:42.459Z,0.08
2023-03-28T00:55:15.949Z,0.05
2023-03-28T00:57:50.789Z,0.03
2023-03-28T01:00:18.556Z,0.03
2023-03-28T01:02:52.919Z,0.02
2023-03-28T01:05:25.882Z,0.01
2023-03-28T01:08:09.139Z,0.00
2023-03-28T01:26:53.038Z,-0.37
2023-03-28T01:29:37.823Z,-0.43
2023-03-28T01:32:39.746Z,-0.46
2023-03-28T01:35:44.970Z,-0.46
2023-03-28T01:38:52.648Z,-0.47
2023-03-28T01:41:27.397Z,-0.46
2023-03-28T01:44:19.234Z,-0.41
2023-03-28T01:47:32.394Z,-0.40
2023-03-28T01:50:21.983Z,-0.36
2023-03-28T01:53:09.051Z,-0.35
2023-03-28T01:56:03.160Z,-0.34
2023-03-28T01:58:37.255Z,-0.34
2023-03-28T02:01:37.023Z,-0.34
2023-03-28T02:04:21.330Z,-0.32
2023-03-28T02:06:58.715Z,-0.29
2023-03-28T02:09:37.912Z,-0.27
2023-03-28T02:12:13.201Z,-0.25
2023-03-28T02:15:06.900Z,-0.24
2023-03-28T02:18:00.694Z,-0.25
2023-03-28T02:21:05.804Z,-0.23
2023-03-28T02:23:50.828Z,-0.21
2023-03-28T02:26:48.526Z,-0.18
2023-03-28T02:29:39.928Z,-0.15
2023-03-28T02:32:23.912Z,-0.14
2023-03-28T02:34:58.028Z,-0.11
2023-03-28T02:38:21.432Z,-0.09
2023-03-28T02:40:51.548Z,-0.08
2023-03-28T02:43:42.948Z,-0.06
2023-03-28T02:46:23.499Z,-0.04
2023-03-28T02:49:09.490Z,-0.01
2023-03-28T02:51:46.579Z,0.02
2023-03-28T02:54:47.624Z,0.04
2023-03-28T02:57:46.550Z,0.04
2023-03-28T03:00:19.581Z,0.06
2023-03-28T03:02:51.626Z,0.07
2023-03-28T03:05:22.190Z,0.08
2023-03-28T03:07:51.625Z,0.06
2023-03-28T03:10:22.088Z,0.04
2023-03-28T03:17:40.512Z,-0.12
2023-03-28T03:20:41.273Z,-0.13
2023-03-28T03:23:51.643Z,-0.16
2023-03-28T03:26:20.718Z,-0.19
2023-03-28T03:29:03.658Z,-0.20
2023-03-28T03:31:32.967Z,-0.22
2023-03-28T03:34:20.184Z,-0.22
2023-03-28T03:36:54.975Z,-0.22
2023-03-28T03:39:23.932Z,-0.19
2023-03-28T03:41:52.436Z,-0.17
2023-03-28T03:44:21.596Z,-0.16
2023-03-28T03:46:50.000Z,-0.19
2023-03-28T03:49:18.455Z,-0.16
2023-03-28T03:51:47.667Z,-0.16
2023-03-28T03:54:18.068Z,-0.14
2023-03-28T03:56:46.647Z,-0.14
2023-03-28T03:59:17.142Z,-0.13
2023-03-28T04:01:46.626Z,-0.13
2023-03-28T04:04:41.453Z,-0.11
2023-03-28T04:07:15.910Z,-0.13
2023-03-28T04:09:44.623Z,-0.10
2023-03-28T04:12:13.038Z,-0.09
2023-03-28T04:14:52.378Z,-0.07
2023-03-28T04:17:41.445Z,-0.09
2023-03-28T04:20:14.113Z,-0.10
2023-03-28T04:23:02.192Z,-0.01
2023-03-28T04:25:34.142Z,0.00
2023-03-28T04:28:09.804Z,0.02
2023-03-28T04:30:58.567Z,0.09
2023-03-28T04:48:19.121Z,0.14
2023-03-28T04:56:23.047Z,0.24
2023-03-28T05:00:31.071Z,0.28
2023-03-28T05:04:11.007Z,0.25
2023-03-28T05:08:11.899Z,0.27
2023-03-28T05:11:54.139Z,0.32
2023-03-28T05:15:00.761Z,0.33
2023-03-28T05:17:32.932Z,0.31
2023-03-28T05:20:47.282Z,0.29
2023-03-28T05:23:41.644Z,0.20
2023-03-28T05:26:18.652Z,0.19
2023-03-28T05:28:50.245Z,0.15
2023-03-28T05:31:20.448Z,0.19
2023-03-28T05:33:53.057Z,0.14
2023-03-28T05:36:33.529Z,0.12
2023-03-28T05:39:38.086Z,0.12
2023-03-28T05:42:46.101Z,0.13
2023-03-28T05:45:20.810Z,0.15
2023-03-28T05:48:15.281Z,0.08
2023-03-28T05:50:49.673Z,0.12
2023-03-28T05:53:19.434Z,0.02
2023-03-28T05:55:52.023Z,0.08
2023-03-28T05:58:20.703Z,0.09
2023-03-28T06:00:49.248Z,0.03
2023-03-28T06:03:18.114Z,-0.02
2023-03-28T06:05:47.522Z,0.04
2023-03-28T06:08:23.737Z,0.06
2023-03-28T06:10:53.448Z,0.09
2023-03-28T06:13:26.648Z,0.09
2023-03-28T06:15:56.161Z,0.14
2023-03-28T06:18:34.830Z,0.19
2023-03-28T06:21:08.568Z,0.18
2023-03-28T06:23:47.556Z,0.18
2023-03-28T06:26:28.233Z,0.22
2023-03-28T06:28:58.977Z,0.27
2023-03-28T06:31:45.980Z,0.26
2023-03-28T06:37:28.962Z,0.21
2023-03-28T06:40:50.430Z,0.21
2023-03-28T06:44:15.198Z,0.23
2023-03-28T06:47:13.526Z,0.19
2023-03-28T06:49:42.644Z,0.17
2023-03-28T06:53:29.627Z,0.15
2023-03-28T06:55:58.292Z,0.18
2023-03-28T06:58:31.900Z,0.19
2023-03-28T07:01:47.655Z,0.21
2023-03-28T07:04:48.791Z,0.21
2023-03-28T07:07:17.064Z,0.25
2023-03-28T07:09:45.634Z,0.26
2023-03-28T07:12:16.932Z,0.20
2023-03-28T07:15:02.488Z,0.28
2023-03-28T07:17:33.635Z,0.47
2023-03-28T07:20:05.941Z,0.49
2023-03-28T07:22:36.552Z,0.52
2023-03-28T07:25:20.342Z,0.55
2023-03-28T07:31:31.994Z,0.65
2023-03-28T07:34:54.529Z,0.61
2023-03-28T07:38:21.506Z,0.54
2023-03-28T07:41:13.959Z,0.40
2023-03-28T07:43:43.340Z,0.28
2023-03-28T07:46:16.039Z,0.18
2023-03-28T07:48:47.100Z,0.08
2023-03-28T07:51:35.701Z,-0.04
2023-03-28T07:54:05.260Z,-0.14
2023-03-28T07:56:33.734Z,-0.27
2023-03-28T07:59:13.852Z,-0.31
2023-03-28T08:01:46.947Z,-0.36
2023-03-28T08:04:15.969Z,-0.26
2023-03-28T08:06:54.568Z,-0.26
2023-03-28T08:09:33.811Z,-0.42
2023-03-28T08:12:37.679Z,-0.29
2023-03-28T08:15:07.407Z,-0.06
2023-03-28T08:17:38.262Z,0.08
2023-03-28T08:20:11.521Z,0.08
2023-03-28T08:23:00.138Z,0.14
2023-03-28T08:25:37.495Z,0.15
2023-03-28T08:28:07.301Z,0.17
2023-03-28T08:30:35.990Z,0.13
2023-03-28T08:33:07.458Z,0.21
2023-03-28T08:35:36.921Z,0.37
2023-03-28T08:38:16.683Z,0.45
2023-03-28T08:40:50.431Z,0.55
2023-03-28T08:43:36.710Z,0.70
2023-03-28T08:46:16.834Z,0.75
2023-03-28T08:48:50.711Z,0.82
2023-03-28T09:09:36.732Z,2.25
2023-03-28T09:13:21.438Z,2.26
2023-03-28T09:16:10.149Z,2.16
2023-03-28T09:19:47.869Z,2.25
2023-03-28T09:23:41.113Z,2.36
2023-03-28T09:26:49.828Z,2.75
2023-03-28T09:29:43.184Z,3.00
2023-03-28T09:32:33.823Z,3.17
2023-03-28T09:35:43.088Z,3.31
2023-03-28T09:38:36.026Z,3.19
2023-03-28T09:45:04.707Z,3.24
2023-03-28T09:47:57.261Z,3.31
2023-03-28T09:50:30.154Z,3.16
2023-03-28T09:52:59.837Z,3.08
2023-03-28T09:55:31.038Z,3.00
2023-03-28T09:58:07.021Z,2.67
2023-03-28T10:00:52.432Z,2.54
2023-03-28T10:03:57.294Z,2.41
2023-03-28T10:07:10.786Z,2.33
2023-03-28T10:09:57.861Z,2.21
2023-03-28T10:12:39.156Z,2.25
2023-03-28T10:15:45.818Z,2.41
2023-03-28T10:18:31.372Z,2.52
2023-03-28T10:21:17.265Z,2.50
2023-03-28T10:23:58.173Z,2.56
2023-03-28T10:26:31.665Z,2.43
2023-03-28T10:29:08.779Z,2.36
2023-03-28T10:31:39.737Z,2.26
2023-03-28T10:34:37.410Z,2.25
2023-03-28T10:37:28.672Z,2.46
2023-03-28T10:40:18.311Z,2.39
2023-03-28T10:46:52.452Z,2.44
2023-03-28T10:57:20.605Z,2.29
2023-03-28T11:01:02.551Z,2.21
2023-03-28T11:04:36.462Z,2.22
2023-03-28T11:07:36.734Z,2.23
2023-03-28T11:10:48.898Z,2.33
2023-03-28T11:13:50.234Z,2.40
2023-03-28T11:16:38.188Z,2.39
2023-03-28T11:19:39.385Z,2.41
2023-03-28T11:22:15.070Z,2.40
2023-03-28T11:24:53.790Z,2.48
2023-03-28T11:27:36.710Z,2.40
2023-03-28T11:30:33.644Z,2.38
2023-03-28T11:33:44.323Z,2.30
2023-03-28T11:36:32.060Z,2.21
2023-03-28T11:39:08.014Z,2.13
2023-03-28T11:41:39.894Z,2.12
2023-03-28T11:44:33.616Z,2.13
2023-03-28T12:53:03.510Z,2.17
2023-03-28T12:55:46.636Z,2.16
2023-03-28T12:58:22.863Z,2.13
2023-03-28T13:01:28.584Z,2.05
2023-03-28T13:04:37.444Z,1.79
2023-03-28T13:07:48.530Z,1.75
2023-03-28T13:40:48.540Z,1.53
2023-03-28T13:43:34.293Z,1.33
2023-03-28T13:46:22.743Z,1.19
2023-03-28T13:49:13.207Z,1.17
2023-03-28T13:51:54.355Z,1.31
2023-03-28T13:54:23.122Z,1.35
2023-03-28T13:56:52.510Z,1.37
2023-03-28T13:59:26.130Z,1.44
2023-03-28T14:32:57.354Z,1.55
2023-03-28T14:51:13.766Z,1.67
2023-03-28T14:53:46.706Z,1.68
2023-03-28T14:56:21.513Z,1.65
2023-03-28T14:58:50.599Z,1.62
2023-03-28T15:01:25.250Z,1.59
2023-03-28T15:04:06.741Z,1.49
2023-03-28T15:06:35.591Z,1.49
2023-03-28T15:09:11.644Z,1.49
2023-03-28T15:11:43.801Z,1.38
2023-03-28T15:14:26.443Z,1.34
2023-03-28T15:17:02.247Z,1.35
2023-03-28T15:19:40.580Z,1.35
2023-03-28T15:22:19.113Z,1.34
2023-03-28T15:24:50.043Z,1.39
2023-03-28T15:27:32.066Z,1.25
2023-03-28T15:30:05.110Z,1.19
2023-03-28T15:32:32.079Z,1.13
2023-03-28T15:35:19.442Z,1.14
2023-03-28T15:37:46.330Z,1.12
2023-03-28T15:40:18.731Z,1.15
2023-03-28T15:42:50.385Z,1.16
2023-03-28T15:45:19.246Z,1.22
2023-03-28T15:47:54.868Z,1.21
2023-03-28T15:50:35.954Z,1.24
2023-03-28T15:53:06.224Z,1.12
2023-03-28T15:55:34.060Z,1.14
2023-03-28T15:58:03.352Z,1.11
2023-03-28T16:00:51.322Z,1.18
2023-03-28T16:03:25.814Z,1.06
2023-03-28T16:06:12.808Z,1.05
2023-03-28T16:08:49.032Z,0.90
2023-03-28T16:11:19.254Z,0.87
2023-03-28T16:14:07.212Z,0.84
2023-03-28T16:16:46.685Z,0.78
2023-03-28T16:19:24.329Z,0.76
2023-03-28T16:21:54.726Z,0.75
2023-03-28T16:24:24.794Z,0.71
2023-03-28T16:26:51.550Z,0.65
2023-03-28T16:29:21.426Z,0.68
2023-03-28T16:31:48.582Z,0.73
2023-03-28T16:34:20.962Z,0.76
2023-03-28T16:36:48.200Z,0.77
2023-03-28T16:39:15.321Z,0.76
2023-03-28T16:41:42.375Z,0.77
2023-03-28T16:44:09.418Z,0.75
2023-03-28T16:46:37.338Z,0.78
2023-03-28T16:49:04.254Z,0.77
2023-03-28T16:51:31.426Z,0.77
2023-03-28T16:53:58.244Z,0.76
2023-03-28T16:56:29.571Z,0.76
2023-03-28T16:58:57.226Z,0.80
2023-03-28T17:01:23.970Z,0.82
2023-03-28T17:03:54.919Z,0.83
2023-03-28T17:06:22.068Z,0.85
2023-03-28T17:08:55.980Z,0.83
2023-03-28T17:11:25.077Z,0.85
2023-03-28T17:14:03.200Z,0.79
2023-03-28T17:20:13.764Z,0.78
2023-03-28T17:22:42.821Z,0.76
2023-03-28T17:25:10.665Z,0.75
2023-03-28T17:27:41.623Z,0.87
2023-03-28T17:30:43.914Z,0.87
2023-03-28T17:33:33.709Z,0.88
2023-03-28T17:36:32.946Z,0.88
2023-03-28T17:39:23.808Z,0.85
2023-03-28T17:49:33.855Z,0.95
2023-03-28T17:52:13.713Z,0.98
2023-03-28T17:54:47.837Z,1.00
2023-03-28T17:57:17.960Z,1.06
2023-03-28T17:59:45.282Z,1.08
2023-03-28T18:02:14.346Z,1.10
2023-03-28T18:04:43.986Z,1.13
2023-03-28T18:07:18.446Z,1.05
2023-03-28T18:09:45.919Z,1.06
2023-03-28T18:12:13.303Z,1.05
2023-03-28T18:14:40.782Z,1.04
2023-03-28T18:17:09.049Z,1.02
2023-03-28T18:19:36.912Z,1.02
2023-03-28T18:43:50.968Z,1.04
2023-03-28T18:46:17.838Z,1.02
2023-03-28T18:48:48.444Z,1.06
2023-03-28T18:51:24.602Z,1.08
2023-03-28T18:53:53.393Z,1.02
2023-03-28T18:56:21.470Z,1.05
2023-03-28T19:13:22.214Z,0.86
2023-03-28T20:21:31.217Z,0.66
2023-03-28T21:16:39.969Z,0.36
2023-03-28T21:19:11.536Z,0.36
2023-03-28T21:21:41.649Z,0.36
2023-03-28T21:24:11.243Z,0.36
2023-03-28T21:26:38.359Z,0.36
2023-03-28T21:29:05.760Z,0.36
2023-03-28T21:31:32.509Z,0.35
2023-03-28T21:34:00.216Z,0.32
2023-03-28T21:36:31.680Z,0.28
2023-03-28T21:38:58.709Z,0.26
2023-03-28T21:41:26.603Z,0.23
2023-03-28T21:43:54.000Z,0.19
2023-03-28T21:46:21.406Z,0.16
2023-03-28T21:48:49.216Z,0.13
2023-03-28T21:51:16.816Z,0.10
2023-03-28T21:53:45.967Z,0.06
2023-03-28T21:56:14.114Z,0.04
2023-03-28T21:58:41.034Z,0.09
2023-03-28T22:01:07.925Z,0.04
2023-03-28T22:03:36.562Z,0.05
2023-03-28T22:06:03.899Z,0.01
2023-03-28T22:08:31.067Z,-0.07
2023-03-28T22:11:03.714Z,-0.15
2023-03-28T22:13:30.884Z,-0.23
2023-03-28T22:16:03.435Z,-0.27
2023-03-28T22:18:30.074Z,-0.30
2023-03-28T22:20:57.119Z,-0.32
2023-03-28T22:23:24.216Z,-0.31
2023-03-28T22:25:52.024Z,-0.32
2023-03-28T22:28:20.570Z,-0.33
2023-03-28T22:30:47.356Z,-0.36
2023-03-28T22:33:14.235Z,-0.41
2023-03-28T22:35:41.338Z,-0.45
2023-03-28T22:38:10.664Z,-0.48
2023-03-28T22:40:39.938Z,-0.49
2023-03-28T22:43:06.863Z,-0.49
2023-03-28T22:45:33.885Z,-0.48
2023-03-28T22:48:02.615Z,-0.49
2023-03-28T22:50:29.720Z,-0.56
2023-03-28T22:52:56.798Z,-0.60
2023-03-28T22:55:23.713Z,-0.63
2023-03-28T22:57:51.815Z,-0.65
2023-03-28T23:00:22.322Z,-0.67
2023-03-28T23:03:12.593Z,-0.68
2023-03-28T23:06:35.617Z,-0.67
2023-03-28T23:10:25.509Z,-0.67
2023-03-28T23:13:52.684Z,-0.71
2023-03-28T23:17:01.804Z,-0.77
2023-03-28T23:19:32.345Z,-0.80
2023-03-28T23:22:00.306Z,-0.79
2023-03-28T23:24:27.838Z,-0.78
2023-03-28T23:26:55.496Z,-0.77
2023-03-28T23:29:25.257Z,-0.78
2023-03-28T23:31:54.842Z,-0.77
2023-03-28T23:34:22.296Z,-0.79
2023-03-28T23:36:51.705Z,-0.80
2023-03-28T23:39:22.133Z,-0.81
2023-03-28T23:41:52.962Z,-0.82
2023-03-28T23:44:19.681Z,-0.83
2023-03-28T23:46:49.475Z,-0.84
2023-03-28T23:49:17.102Z,-0.85
2023-03-28T23:51:50.150Z,-0.87
2023-03-28T23:54:19.242Z,-0.89
2023-03-28T23:56:46.810Z,-0.94
2023-03-28T23:59:16.281Z,-0.96
